Time;durP1;ratioP1;P1;durP2;ratioP2;P2;SDS_P1;SDS_P2;PMS_P1;PMS_P2;Temp;Humidity;BMP_temperature;BMP_pressure;BME280_temperature;BME280_humidity;BME280_pressure;Samples;Min_cycle;Max_cycle;Signal;HPM_P1;HPM_P2
2023/03/19 00:02:06;;;;;;;44.30;25.80;;;;;;;;;;105801;1258;62110;-48
2023/03/19 00:04:45;;;;;;;43.40;24.30;;;;;;;;;;106279;1255;60394;-49
2023/03/19 00:07:13;;;;;;;39.20;25.50;;;;;;;;;;106014;1257;60819;-48
2023/03/19 00:09:41;;;;;;;45.10;25.10;;;;;;;;;;106442;1258;60683;-46
2023/03/19 00:12:10;;;;;;;38.90;24.30;;;;;;;;;;105645;1259;60463;-49
2023/03/19 00:14:39;;;;;;;38.80;24.70;;;;;;;;;;105867;1253;61940;-48
2023/03/19 00:17:07;;;;;;;41.20;25.20;;;;;;;;;;105570;1257;60348;-48
2023/03/19 00:19:35;;;;;;;35.70;23.50;;;;;;;;;;105832;1257;60777;-47
2023/03/19 00:22:07;;;;;;;36.30;23.60;;;;;;;;;;105506;1258;60429;-47
2023/03/19 00:24:37;;;;;;;35.20;23.30;;;;;;;;;;105588;1255;59119;-47
2023/03/19 00:27:05;;;;;;;39.20;24.30;;;;;;;;;;105658;1259;62148;-47
2023/03/19 00:29:36;;;;;;;35.50;22.20;;;;;;;;;;105601;1257;60335;-49
2023/03/19 00:32:04;;;;;;;35.40;22.40;;;;;;;;;;105664;1257;60747;-49
2023/03/19 00:34:32;;;;;;;33.40;22.40;;;;;;;;;;105611;1254;60643;-47
2023/03/19 00:37:00;;;;;;;39.90;23.60;;;;;;;;;;107724;1256;58618;-47
2023/03/19 00:39:29;;;;;;;33.70;22.20;;;;;;;;;;105663;1257;62141;-49
2023/03/19 00:41:57;;;;;;;37.40;22.80;;;;;;;;;;105658;1253;61261;-45
2023/03/19 00:44:26;;;;;;;41.00;23.10;;;;;;;;;;105851;1259;61218;-46
2023/03/19 00:46:55;;;;;;;42.50;24.50;;;;;;;;;;105612;1257;60351;-48
2023/03/19 00:49:22;;;;;;;35.90;22.60;;;;;;;;;;105908;1253;60598;-48
2023/03/19 00:51:52;;;;;;;35.80;23.90;;;;;;;;;;105747;1258;62348;-47
2023/03/19 00:54:20;;;;;;;38.30;24.90;;;;;;;;;;106250;1257;60352;-47
2023/03/19 00:56:48;;;;;;;38.60;23.20;;;;;;;;;;105720;1256;60723;-48
2023/03/19 00:59:16;;;;;;;41.80;25.50;;;;;;;;;;105656;1255;60428;-47
2023/03/19 01:01:44;;;;;;;36.70;22.10;;;;;;;;;;105677;1258;60460;-47
2023/03/19 01:04:14;;;;;;;41.20;24.40;;;;;;;;;;106080;1252;62081;-46
2023/03/19 01:06:42;;;;;;;39.50;24.20;;;;;;;;;;105701;1260;60390;-47
2023/03/19 01:09:10;;;;;;;40.00;24.00;;;;;;;;;;108554;1255;60692;-49
2023/03/19 01:11:38;;;;;;;37.20;23.70;;;;;;;;;;105460;1254;60417;-47
2023/03/19 01:14:10;;;;;;;36.30;22.20;;;;;;;;;;107191;1257;60483;-48
2023/03/19 01:16:39;;;;;;;35.80;22.50;;;;;;;;;;106158;1256;62219;-48
2023/03/19 01:19:07;;;;;;;38.90;24.00;;;;;;;;;;105605;1256;60429;-46
2023/03/19 01:21:35;;;;;;;43.20;25.30;;;;;;;;;;105634;1252;60726;-48
2023/03/19 01:24:04;;;;;;;40.10;25.90;;;;;;;;;;105565;1255;60436;-49
2023/03/19 01:26:32;;;;;;;45.80;27.00;;;;;;;;;;105342;1257;60352;-49
2023/03/19 01:29:12;;;;;;;42.50;26.80;;;;;;;;;;105936;1258;62129;-48
2023/03/19 01:31:40;;;;;;;45.90;26.50;;;;;;;;;;105922;1256;60423;-48
2023/03/19 01:34:23;;;;;;;40.20;25.40;;;;;;;;;;105774;1256;60672;-47
2023/03/19 01:36:54;;;;;;;45.20;25.30;;;;;;;;;;105569;1256;62132;-46
2023/03/19 01:39:29;;;;;;;39.20;24.30;;;;;;;;;;105467;1258;61098;-46
2023/03/19 01:41:59;;;;;;;43.70;23.30;;;;;;;;;;106726;1256;62120;-47
2023/03/19 01:44:46;;;;;;;37.90;23.30;;;;;;;;;;105579;1266;60699;-48
2023/03/19 01:47:40;;;;;;;39.40;22.20;;;;;;;;;;105634;1253;60782;-49
2023/03/19 01:50:23;;;;;;;38.20;23.20;;;;;;;;;;105630;1254;60505;-45
2023/03/19 01:53:01;;;;;;;35.80;22.30;;;;;;;;;;105636;1253;60349;-47
2023/03/19 01:55:45;;;;;;;33.50;21.50;;;;;;;;;;109211;1254;61215;-49
2023/03/19 01:58:27;;;;;;;36.40;21.80;;;;;;;;;;109065;1254;58416;-48
2023/03/19 02:01:07;;;;;;;33.80;20.60;;;;;;;;;;108979;1253;60537;-48
2023/03/19 02:03:38;;;;;;;37.50;20.40;;;;;;;;;;109169;1253;58467;-48
2023/03/19 02:06:18;;;;;;;35.00;23.10;;;;;;;;;;109064;1253;59214;-48
2023/03/19 02:08:47;;;;;;;35.40;20.70;;;;;;;;;;109126;1254;61220;-48
2023/03/19 02:11:15;;;;;;;36.60;22.10;;;;;;;;;;108982;1253;58985;-48
2023/03/19 02:13:43;;;;;;;35.80;22.00;;;;;;;;;;109138;1254;59830;-47
2023/03/19 02:16:11;;;;;;;31.90;22.50;;;;;;;;;;109135;1254;58191;-48
2023/03/19 02:18:40;;;;;;;37.50;24.80;;;;;;;;;;109060;1254;58892;-47
2023/03/19 02:21:09;;;;;;;39.20;24.10;;;;;;;;;;109027;1254;62088;-48
2023/03/19 02:23:45;;;;;;;42.90;26.40;;;;;;;;;;108935;1259;58860;-47
2023/03/19 02:26:15;;;;;;;35.30;22.50;;;;;;;;;;109201;1253;59558;-47
2023/03/19 02:28:45;;;;;;;36.90;23.10;;;;;;;;;;108982;1253;58270;-47
2023/03/19 02:31:15;;;;;;;32.10;21.60;;;;;;;;;;109012;1257;58470;-47
2023/03/19 02:33:43;;;;;;;28.70;19.10;;;;;;;;;;109086;1253;61802;-47
2023/03/19 02:36:13;;;;;;;32.70;20.60;;;;;;;;;;109122;1254;59788;-47
2023/03/19 02:38:41;;;;;;;31.00;20.40;;;;;;;;;;109222;1253;59961;-47
2023/03/19 02:41:10;;;;;;;32.30;19.60;;;;;;;;;;109041;1254;58642;-47
2023/03/19 02:43:40;;;;;;;28.90;17.60;;;;;;;;;;109253;1253;59124;-47
2023/03/19 02:46:09;;;;;;;27.60;17.30;;;;;;;;;;109135;1253;61299;-47
2023/03/19 02:48:40;;;;;;;24.30;17.80;;;;;;;;;;105713;1261;60536;-45
2023/03/19 02:51:08;;;;;;;25.20;16.90;;;;;;;;;;106099;1254;60359;-44
2023/03/19 02:53:41;;;;;;;26.90;17.40;;;;;;;;;;105595;1254;60533;-47
2023/03/19 02:56:11;;;;;;;27.40;18.80;;;;;;;;;;108350;1254;58794;-46
2023/03/19 02:58:40;;;;;;;31.70;18.80;;;;;;;;;;106415;1254;62222;-46
2023/03/19 03:01:07;;;;;;;33.50;20.20;;;;;;;;;;105510;1257;60511;-46
2023/03/19 03:03:36;;;;;;;29.40;19.40;;;;;;;;;;105488;1254;60738;-47
2023/03/19 03:06:04;;;;;;;31.50;20.10;;;;;;;;;;106195;1258;60429;-46
2023/03/19 03:08:33;;;;;;;30.40;19.80;;;;;;;;;;105453;1253;60551;-46
2023/03/19 03:11:01;;;;;;;28.70;19.60;;;;;;;;;;105426;1254;62136;-47
2023/03/19 03:13:32;;;;;;;28.70;18.50;;;;;;;;;;106556;1254;60533;-48
2023/03/19 03:16:02;;;;;;;24.70;17.80;;;;;;;;;;106522;1253;60468;-48
2023/03/19 03:18:30;;;;;;;31.50;19.20;;;;;;;;;;105517;1257;60340;-47
2023/03/19 03:21:05;;;;;;;25.70;16.50;;;;;;;;;;105316;1252;60449;-48
2023/03/19 03:23:35;;;;;;;27.20;16.60;;;;;;;;;;105407;1254;61858;-47
2023/03/19 03:26:03;;;;;;;25.40;16.00;;;;;;;;;;105560;1257;62905;-47
2023/03/19 03:28:32;;;;;;;23.90;15.80;;;;;;;;;;105559;1254;60440;-48
2023/03/19 03:31:01;;;;;;;20.10;15.70;;;;;;;;;;106674;1254;60550;-48
2023/03/19 03:33:29;;;;;;;23.20;15.00;;;;;;;;;;105976;1254;60397;-48
2023/03/19 03:35:57;;;;;;;24.20;16.00;;;;;;;;;;106264;1254;62011;-47
2023/03/19 03:38:26;;;;;;;28.00;16.80;;;;;;;;;;106667;1253;60414;-47
2023/03/19 03:40:54;;;;;;;23.80;14.20;;;;;;;;;;106128;1253;60786;-47
2023/03/19 03:43:25;;;;;;;22.20;13.90;;;;;;;;;;105562;1260;60454;-48
2023/03/19 03:45:53;;;;;;;22.30;15.00;;;;;;;;;;105561;1252;60432;-49
2023/03/19 03:48:21;;;;;;;26.60;17.20;;;;;;;;;;106816;1253;62093;-49
2023/03/19 03:50:50;;;;;;;21.30;14.10;;;;;;;;;;105359;1256;60333;-50
2023/03/19 03:53:21;;;;;;;23.20;16.10;;;;;;;;;;105616;1254;60556;-50
2023/03/19 03:55:50;;;;;;;24.60;15.10;;;;;;;;;;105578;1257;60267;-48
2023/03/19 03:58:20;;;;;;;22.50;14.80;;;;;;;;;;105718;1254;60433;-49
2023/03/19 04:00:49;;;;;;;20.90;14.40;;;;;;;;;;105332;1260;62081;-48
2023/03/19 04:03:18;;;;;;;19.30;14.80;;;;;;;;;;105674;1254;60515;-48
2023/03/19 04:05:46;;;;;;;20.20;14.30;;;;;;;;;;105656;1255;61333;-48
2023/03/19 04:08:15;;;;;;;17.20;13.30;;;;;;;;;;105515;1254;60473;-49
2023/03/19 04:10:43;;;;;;;20.00;13.90;;;;;;;;;;106244;1254;60351;-48
2023/03/19 04:13:11;;;;;;;20.30;14.60;;;;;;;;;;105861;1255;62202;-48
2023/03/19 04:15:43;;;;;;;18.70;13.90;;;;;;;;;;106676;1255;60348;-48
2023/03/19 04:18:12;;;;;;;19.90;14.40;;;;;;;;;;105440;1254;60845;-50
2023/03/19 04:20:41;;;;;;;21.00;14.20;;;;;;;;;;106962;1253;60410;-49
2023/03/19 04:23:10;;;;;;;18.00;12.80;;;;;;;;;;106105;1260;60453;-45
2023/03/19 04:25:40;;;;;;;20.20;13.60;;;;;;;;;;106116;1254;62027;-47
2023/03/19 04:28:09;;;;;;;20.10;13.00;;;;;;;;;;107181;1254;60614;-47
2023/03/19 04:30:39;;;;;;;20.30;13.80;;;;;;;;;;106364;1258;61003;-47
2023/03/19 04:33:07;;;;;;;18.90;13.70;;;;;;;;;;106042;1258;59631;-47
2023/03/19 04:35:36;;;;;;;21.60;14.00;;;;;;;;;;105907;1254;60582;-47
2023/03/19 04:38:05;;;;;;;17.30;12.60;;;;;;;;;;105763;1260;62160;-46
2023/03/19 04:40:33;;;;;;;14.30;10.80;;;;;;;;;;106410;1257;60432;-46
2023/03/19 04:43:01;;;;;;;16.90;11.90;;;;;;;;;;106114;1259;60512;-44
2023/03/19 04:45:33;;;;;;;15.30;9.60;;;;;;;;;;105632;1254;60550;-46
2023/03/19 04:48:02;;;;;;;13.50;10.30;;;;;;;;;;109283;1253;58787;-47
2023/03/19 04:50:30;;;;;;;12.20;9.60;;;;;;;;;;107375;1255;209152;-45
2023/03/19 04:54:53;;;;;;;15.50;9.70;;;;;;;;;;103184;1286;600449;-47
2023/03/19 04:57:22;;;;;;;17.50;11.40;;;;;;;;;;105148;1270;59129;-47
2023/03/19 04:59:56;;;;;;;17.50;11.30;;;;;;;;;;105581;1269;59066;-45
2023/03/19 05:02:25;;;;;;;19.20;12.20;;;;;;;;;;105263;1263;60493;-46
2023/03/19 05:04:53;;;;;;;16.80;11.40;;;;;;;;;;104920;1269;59053;-47
2023/03/19 05:07:21;;;;;;;14.00;10.70;;;;;;;;;;104597;1272;154459;-47
2023/03/19 05:09:50;;;;;;;16.30;11.10;;;;;;;;;;108615;1263;57472;-48
2023/03/19 05:12:18;;;;;;;21.60;13.30;;;;;;;;;;108532;1263;56825;-48
2023/03/19 05:14:51;;;;;;;25.00;18.50;;;;;;;;;;108558;1263;60433;-48
2023/03/19 05:17:22;;;;;;;29.40;19.40;;;;;;;;;;108501;1263;56901;-48
2023/03/19 05:20:11;;;;;;;30.10;20.40;;;;;;;;;;108552;1265;59314;-48
2023/03/19 05:22:45;;;;;;;29.80;21.10;;;;;;;;;;108578;1264;57708;-49
2023/03/19 05:25:14;;;;;;;35.20;23.10;;;;;;;;;;108596;1263;57390;-49
2023/03/19 05:27:43;;;;;;;36.90;24.10;;;;;;;;;;108517;1264;61072;-49
2023/03/19 05:30:17;;;;;;;37.90;23.80;;;;;;;;;;108543;1262;57854;-49
2023/03/19 05:33:21;;;;;;;36.60;24.90;;;;;;;;;;108384;1266;60588;-49
2023/03/19 05:35:50;;;;;;;38.70;26.10;;;;;;;;;;108272;1262;58746;-49
2023/03/19 05:38:22;;;;;;;39.10;25.90;;;;;;;;;;108412;1264;57444;-49
2023/03/19 05:41:05;;;;;;;36.20;25.60;;;;;;;;;;108382;1262;60896;-49
2023/03/19 05:43:50;;;;;;;36.60;26.40;;;;;;;;;;108358;1264;57941;-49
2023/03/19 05:46:33;;;;;;;38.90;25.90;;;;;;;;;;104854;1263;59866;-48
2023/03/19 05:49:01;;;;;;;37.70;26.40;;;;;;;;;;108425;1266;57580;-49
2023/03/19 05:51:32;;;;;;;39.40;26.50;;;;;;;;;;108421;1267;58478;-49
2023/03/19 05:54:00;;;;;;;33.90;25.80;;;;;;;;;;108602;1264;61344;-48
2023/03/19 05:56:36;;;;;;;39.60;26.10;;;;;;;;;;105104;1266;59620;-46
2023/03/19 05:59:24;;;;;;;37.00;26.00;;;;;;;;;;105804;1266;60768;-45
2023/03/19 06:02:02;;;;;;;32.90;23.00;;;;;;;;;;104910;1268;60093;-48
2023/03/19 06:04:30;;;;;;;27.80;21.10;;;;;;;;;;104391;1269;59724;-48
2023/03/19 06:06:58;;;;;;;34.90;24.50;;;;;;;;;;107816;1263;61660;-48
2023/03/19 06:09:27;;;;;;;28.20;22.40;;;;;;;;;;104876;1266;59583;-47
2023/03/19 06:11:58;;;;;;;28.10;19.80;;;;;;;;;;105485;1267;60512;-46
2023/03/19 06:14:47;;;;;;;27.50;18.70;;;;;;;;;;105337;1266;59639;-45
2023/03/19 06:17:45;;;;;;;28.80;18.80;;;;;;;;;;105642;1266;59606;-49
2023/03/19 06:20:15;;;;;;;23.00;17.70;;;;;;;;;;104771;1268;61576;-49
2023/03/19 06:22:44;;;;;;;27.10;16.10;;;;;;;;;;106176;1266;59609;-49
2023/03/19 06:25:11;;;;;;;18.80;15.40;;;;;;;;;;104790;1269;59699;-47
2023/03/19 06:27:41;;;;;;;23.20;14.50;;;;;;;;;;105437;1266;59739;-46
2023/03/19 06:30:18;;;;;;;15.70;12.20;;;;;;;;;;105613;1263;59545;-50
2023/03/19 06:32:47;;;;;;;22.70;14.40;;;;;;;;;;104962;1270;61342;-48
2023/03/19 06:35:15;;;;;;;19.00;14.50;;;;;;;;;;104800;1267;59723;-51
2023/03/19 06:37:45;;;;;;;18.60;14.00;;;;;;;;;;104925;1266;59999;-50
2023/03/19 06:40:13;;;;;;;13.30;9.50;;;;;;;;;;105269;1267;59615;-49
2023/03/19 06:42:45;;;;;;;15.40;11.30;;;;;;;;;;104836;1263;59669;-47
2023/03/19 06:45:20;;;;;;;15.30;10.30;;;;;;;;;;104606;1270;61571;-47
2023/03/19 06:47:48;;;;;;;10.90;8.90;;;;;;;;;;104389;1266;59618;-47
2023/03/19 06:50:20;;;;;;;10.70;7.30;;;;;;;;;;104565;1264;60837;-48
2023/03/19 06:52:48;;;;;;;11.30;7.40;;;;;;;;;;104527;1274;59740;-49
2023/03/19 06:55:16;;;;;;;7.00;5.60;;;;;;;;;;104668;1267;59650;-48
2023/03/19 06:57:47;;;;;;;9.40;5.70;;;;;;;;;;105408;1265;61323;-48
2023/03/19 07:00:18;;;;;;;6.00;4.70;;;;;;;;;;104907;1266;59768;-48
2023/03/19 07:02:46;;;;;;;5.10;3.70;;;;;;;;;;104918;1267;60467;-48
2023/03/19 07:05:21;;;;;;;7.30;3.60;;;;;;;;;;104846;1268;59529;-47
2023/03/19 07:07:49;;;;;;;8.00;4.00;;;;;;;;;;106215;1263;59548;-48
2023/03/19 07:10:19;;;;;;;3.90;3.60;;;;;;;;;;104859;1266;62857;-48
2023/03/19 07:12:49;;;;;;;6.20;5.60;;;;;;;;;;104456;1266;59730;-48
2023/03/19 07:15:19;;;;;;;4.00;3.60;;;;;;;;;;104521;1267;60817;-48
2023/03/19 07:17:47;;;;;;;4.50;3.70;;;;;;;;;;105297;1270;59768;-47
2023/03/19 07:20:15;;;;;;;4.10;3.60;;;;;;;;;;106271;1266;59067;-48
2023/03/19 07:22:44;;;;;;;4.20;3.80;;;;;;;;;;104987;1262;61374;-49
2023/03/19 07:25:12;;;;;;;6.40;4.70;;;;;;;;;;105436;1263;59828;-47
2023/03/19 07:27:40;;;;;;;5.10;4.70;;;;;;;;;;105035;1264;61010;-49
2023/03/19 07:30:09;;;;;;;4.50;4.10;;;;;;;;;;104992;1267;59749;-47
2023/03/19 07:32:39;;;;;;;5.20;4.50;;;;;;;;;;105807;1266;59627;-47
2023/03/19 07:35:10;;;;;;;4.30;3.80;;;;;;;;;;104920;1266;60488;-48
2023/03/19 07:37:38;;;;;;;5.50;4.50;;;;;;;;;;105378;1262;59759;-48
2023/03/19 07:40:10;;;;;;;5.50;3.90;;;;;;;;;;104823;1264;60910;-49
2023/03/19 07:42:38;;;;;;;4.50;4.10;;;;;;;;;;104822;1266;59682;-49
2023/03/19 07:45:07;;;;;;;4.50;4.10;;;;;;;;;;104915;1263;60445;-48
2023/03/19 07:47:35;;;;;;;4.80;4.40;;;;;;;;;;104939;1270;60355;-48
2023/03/19 07:50:03;;;;;;;4.50;4.10;;;;;;;;;;105124;1266;59557;-48
2023/03/19 07:52:31;;;;;;;4.50;4.10;;;;;;;;;;106871;1263;60862;-47
2023/03/19 07:54:59;;;;;;;4.10;3.70;;;;;;;;;;105180;1263;59727;-49
2023/03/19 07:57:27;;;;;;;6.30;3.00;;;;;;;;;;105102;1260;59653;-48
2023/03/19 07:59:57;;;;;;;11.80;4.70;;;;;;;;;;105176;1263;60467;-49
2023/03/19 08:02:25;;;;;;;6.30;4.20;;;;;;;;;;105116;1263;59646;-49
2023/03/19 08:04:53;;;;;;;5.90;4.50;;;;;;;;;;105136;1261;61122;-47
2023/03/19 08:07:24;;;;;;;5.30;4.00;;;;;;;;;;105098;1261;59720;-49
2023/03/19 08:09:52;;;;;;;4.30;3.90;;;;;;;;;;108701;1258;57784;-48
2023/03/19 08:12:20;;;;;;;4.40;3.70;;;;;;;;;;105517;1260;60908;-49
2023/03/19 08:14:48;;;;;;;3.40;3.10;;;;;;;;;;104681;1260;59554;-50
2023/03/19 08:17:17;;;;;;;5.10;4.60;;;;;;;;;;105320;1261;60890;-47
2023/03/19 08:19:45;;;;;;;4.20;3.80;;;;;;;;;;104826;1260;59634;-49
2023/03/19 08:22:14;;;;;;;6.20;5.40;;;;;;;;;;108562;1259;59193;-49
2023/03/19 08:24:42;;;;;;;7.50;6.60;;;;;;;;;;108474;1260;61260;-49
2023/03/19 08:27:10;;;;;;;7.20;4.80;;;;;;;;;;108625;1260;58541;-48
2023/03/19 08:29:39;;;;;;;6.50;5.50;;;;;;;;;;108564;1261;59926;-49
2023/03/19 08:32:07;;;;;;;6.70;5.30;;;;;;;;;;108468;1264;57957;-49
2023/03/19 08:34:35;;;;;;;4.70;4.10;;;;;;;;;;108605;1259;58224;-49
2023/03/19 08:37:03;;;;;;;6.70;6.10;;;;;;;;;;108670;1260;61197;-49
2023/03/19 08:39:31;;;;;;;5.70;4.90;;;;;;;;;;108659;1260;57375;-49
2023/03/19 08:41:59;;;;;;;5.80;5.30;;;;;;;;;;108502;1260;60648;-49
2023/03/19 08:44:27;;;;;;;4.90;4.40;;;;;;;;;;108549;1260;58259;-49
2023/03/19 08:46:55;;;;;;;3.60;3.30;;;;;;;;;;108737;1260;57669;-49
2023/03/19 08:49:28;;;;;;;4.70;4.00;;;;;;;;;;108707;1260;61800;-49
2023/03/19 08:51:56;;;;;;;4.50;4.10;;;;;;;;;;108783;1259;57409;-50
2023/03/19 08:54:24;;;;;;;2.80;2.40;;;;;;;;;;108787;1260;60924;-49
2023/03/19 08:56:52;;;;;;;4.40;4.00;;;;;;;;;;108647;1260;57442;-49
2023/03/19 08:59:22;;;;;;;5.20;3.90;;;;;;;;;;108775;1259;57437;-50
2023/03/19 09:01:51;;;;;;;5.70;2.90;;;;;;;;;;108771;1260;61706;-49
2023/03/19 09:04:19;;;;;;;3.30;3.10;;;;;;;;;;108694;1260;57667;-49
2023/03/19 09:06:50;;;;;;;2.70;2.40;;;;;;;;;;108766;1260;62557;-49
2023/03/19 09:09:19;;;;;;;6.30;3.40;;;;;;;;;;105845;1261;60500;-48
2023/03/19 09:11:49;;;;;;;3.50;3.20;;;;;;;;;;104957;1261;60558;-47
2023/03/19 09:14:19;;;;;;;4.70;3.70;;;;;;;;;;104639;1261;61831;-47
2023/03/19 09:16:47;;;;;;;4.00;3.10;;;;;;;;;;104617;1260;60480;-46
2023/03/19 09:19:15;;;;;;;4.00;3.50;;;;;;;;;;104537;1261;60838;-48
2023/03/19 09:21:45;;;;;;;2.90;2.60;;;;;;;;;;104883;1260;60411;-48
2023/03/19 09:24:13;;;;;;;3.90;2.60;;;;;;;;;;107976;1259;58143;-49
2023/03/19 09:26:41;;;;;;;5.50;3.70;;;;;;;;;;104983;1260;62602;-46
2023/03/19 09:29:09;;;;;;;2.70;2.50;;;;;;;;;;104581;1260;60974;-49
2023/03/19 09:31:37;;;;;;;4.50;2.50;;;;;;;;;;104581;1261;60364;-46
2023/03/19 09:34:06;;;;;;;5.30;3.40;;;;;;;;;;104666;1263;61119;-46
2023/03/19 09:36:34;;;;;;;5.00;3.30;;;;;;;;;;104676;1263;60422;-46
2023/03/19 09:39:03;;;;;;;4.30;3.80;;;;;;;;;;104816;1261;60961;-48
2023/03/19 09:41:34;;;;;;;2.60;2.40;;;;;;;;;;106099;1263;60417;-50
2023/03/19 09:44:03;;;;;;;2.50;2.30;;;;;;;;;;106292;1260;60963;-49
2023/03/19 09:46:37;;;;;;;4.80;3.10;;;;;;;;;;104863;1266;60447;-49
2023/03/19 09:49:06;;;;;;;3.00;2.20;;;;;;;;;;105309;1260;60341;-45
2023/03/19 09:51:38;;;;;;;4.20;2.60;;;;;;;;;;105275;1261;62112;-48
2023/03/19 09:54:07;;;;;;;2.50;2.30;;;;;;;;;;108497;1259;58457;-47
2023/03/19 09:56:35;;;;;;;3.10;2.80;;;;;;;;;;105249;1263;60846;-48
2023/03/19 09:59:03;;;;;;;3.70;2.40;;;;;;;;;;105498;1261;60415;-48
2023/03/19 10:01:34;;;;;;;3.30;2.90;;;;;;;;;;105177;1260;61583;-48
2023/03/19 10:04:02;;;;;;;3.70;3.40;;;;;;;;;;106085;1260;60887;-50
2023/03/19 10:06:34;;;;;;;2.50;2.30;;;;;;;;;;104900;1263;60434;-48
2023/03/19 10:09:03;;;;;;;2.00;1.80;;;;;;;;;;104698;1264;60799;-48
2023/03/19 10:11:32;;;;;;;3.10;2.00;;;;;;;;;;104845;1260;60546;-48
2023/03/19 10:14:00;;;;;;;2.60;1.50;;;;;;;;;;104481;1261;60211;-47
2023/03/19 10:16:29;;;;;;;3.40;1.70;;;;;;;;;;104263;1260;62217;-48
2023/03/19 10:18:58;;;;;;;1.50;1.20;;;;;;;;;;106708;1260;61218;-49
2023/03/19 10:21:38;;;;;;;1.60;1.20;;;;;;;;;;104820;1260;60354;-46
2023/03/19 10:24:10;;;;;;;2.70;1.20;;;;;;;;;;104587;1263;60533;-45
2023/03/19 10:26:37;;;;;;;1.10;0.80;;;;;;;;;;105091;1263;60414;-47
2023/03/19 10:29:07;;;;;;;1.20;1.00;;;;;;;;;;105230;1263;62110;-46
2023/03/19 10:31:54;;;;;;;1.30;1.10;;;;;;;;;;105219;1260;60411;-45
2023/03/19 10:34:27;;;;;;;1.70;1.20;;;;;;;;;;105483;1263;60437;-49
2023/03/19 10:36:59;;;;;;;3.60;1.20;;;;;;;;;;104865;1260;60437;-49
2023/03/19 10:39:31;;;;;;;1.20;0.90;;;;;;;;;;104310;1260;60534;-49
2023/03/19 10:42:14;;;;;;;3.90;1.30;;;;;;;;;;104487;1254;62976;-49
2023/03/19 10:44:45;;;;;;;1.60;0.90;;;;;;;;;;104764;1260;60537;-49
2023/03/19 10:47:13;;;;;;;1.50;1.40;;;;;;;;;;105328;1254;60994;-48
2023/03/19 10:49:41;;;;;;;2.40;1.20;;;;;;;;;;105147;1259;60478;-50
2023/03/19 10:52:19;;;;;;;2.10;1.10;;;;;;;;;;105361;1257;60431;-48
2023/03/19 10:54:47;;;;;;;1.50;1.30;;;;;;;;;;105229;1260;62223;-45
2023/03/19 10:57:20;;;;;;;1.20;1.10;;;;;;;;;;106072;1256;60403;-47
2023/03/19 10:59:48;;;;;;;1.80;1.10;;;;;;;;;;105022;1254;60504;-50
2023/03/19 11:02:26;;;;;;;6.00;5.30;;;;;;;;;;107365;1255;60494;-47
2023/03/19 11:05:12;;;;;;;4.90;2.30;;;;;;;;;;104842;1255;60472;-48
2023/03/19 11:07:40;;;;;;;1.90;1.20;;;;;;;;;;105012;1255;62402;-46
2023/03/19 11:10:13;;;;;;;1.50;1.40;;;;;;;;;;106743;1259;60500;-47
2023/03/19 11:12:46;;;;;;;2.80;1.60;;;;;;;;;;104841;1259;60515;-47
2023/03/19 11:15:25;;;;;;;1.30;0.90;;;;;;;;;;108219;1256;59365;-48
2023/03/19 11:17:57;;;;;;;2.70;1.30;;;;;;;;;;108925;1254;58503;-47
2023/03/19 11:20:26;;;;;;;1.50;1.10;;;;;;;;;;108909;1254;61132;-48
2023/03/19 11:23:01;;;;;;;2.70;1.70;;;;;;;;;;105242;1257;60744;-49
2023/03/19 11:25:37;;;;;;;1.20;1.10;;;;;;;;;;105968;1256;60748;-50
2023/03/19 11:28:11;;;;;;;1.70;1.50;;;;;;;;;;105134;1259;60453;-48
2023/03/19 11:30:54;;;;;;;1.30;0.90;;;;;;;;;;105334;1259;60427;-47
2023/03/19 11:33:31;;;;;;;1.40;1.20;;;;;;;;;;109116;1254;62120;-50
2023/03/19 11:36:02;;;;;;;4.20;1.40;;;;;;;;;;107462;1256;60398;-47
2023/03/19 11:38:37;;;;;;;1.40;1.10;;;;;;;;;;107206;1254;60828;-47
2023/03/19 11:41:32;;;;;;;5.50;1.30;;;;;;;;;;108820;1254;60369;-49
2023/03/19 11:44:03;;;;;;;2.30;1.60;;;;;;;;;;108737;1254;59642;-48
2023/03/19 11:46:33;;;;;;;2.50;1.40;;;;;;;;;;108881;1254;62824;-49
2023/03/19 11:49:20;;;;;;;1.20;1.10;;;;;;;;;;108983;1254;59181;-47
2023/03/19 11:51:49;;;;;;;1.60;1.10;;;;;;;;;;109042;1255;59517;-48
2023/03/19 11:54:29;;;;;;;1.60;1.20;;;;;;;;;;108933;1257;58182;-47
2023/03/19 11:56:58;;;;;;;1.80;0.90;;;;;;;;;;105421;1254;60705;-49
2023/03/19 11:59:45;;;;;;;1.30;1.10;;;;;;;;;;109018;1254;62166;-49
2023/03/19 12:02:29;;;;;;;3.70;1.30;;;;;;;;;;108933;1255;58853;-48
2023/03/19 12:04:58;;;;;;;;;;;;;;;;;;108887;1257;59860;-48
2023/03/19 12:07:29;;;;;;;51.40;38.30;;;;;;;;;;108919;1254;58658;-49
2023/03/19 12:10:16;;;;;;;6.50;5.90;;;;;;;;;;108817;1254;59040;-48
2023/03/19 12:12:50;;;;;;;4.60;1.90;;;;;;;;;;108663;1254;63374;-48
2023/03/19 12:15:27;;;;;;;2.70;1.20;;;;;;;;;;108742;1254;58101;-47
2023/03/19 12:18:06;;;;;;;3.90;2.80;;;;;;;;;;105451;1260;60889;-49
2023/03/19 12:20:37;;;;;;;2.90;1.20;;;;;;;;;;106105;1258;60440;-47
2023/03/19 12:23:06;;;;;;;3.60;1.30;;;;;;;;;;105746;1254;60470;-47
2023/03/19 12:25:53;;;;;;;4.60;1.90;;;;;;;;;;107316;1254;62133;-49
2023/03/19 12:28:34;;;;;;;2.70;1.50;;;;;;;;;;105432;1258;60605;-46
2023/03/19 12:31:21;;;;;;;2.60;1.80;;;;;;;;;;105981;1255;60761;-49
2023/03/19 12:33:57;;;;;;;2.40;1.70;;;;;;;;;;105558;1257;60690;-45
2023/03/19 12:36:28;;;;;;;2.40;1.70;;;;;;;;;;105686;1254;60496;-48
2023/03/19 12:38:57;;;;;;;3.90;1.40;;;;;;;;;;105474;1258;62183;-45
2023/03/19 12:41:28;;;;;;;3.80;2.20;;;;;;;;;;105280;1257;60425;-48
2023/03/19 12:43:56;;;;;;;2.10;1.90;;;;;;;;;;105594;1258;61237;-48
2023/03/19 12:46:30;;;;;;;3.50;1.50;;;;;;;;;;105605;1259;60459;-48
2023/03/19 12:49:06;;;;;;;3.90;1.60;;;;;;;;;;107027;1256;60534;-48
2023/03/19 12:51:35;;;;;;;1.90;1.60;;;;;;;;;;106159;1255;62049;-48
2023/03/19 12:54:07;;;;;;;6.50;3.80;;;;;;;;;;108685;1258;58528;-50
2023/03/19 12:56:35;;;;;;;1.70;1.60;;;;;;;;;;105528;1258;60433;-48
2023/03/19 12:59:24;;;;;;;6.90;1.70;;;;;;;;;;105620;1256;60863;-48
2023/03/19 13:02:21;;;;;;;2.50;1.40;;;;;;;;;;105373;1254;60437;-48
2023/03/19 13:04:52;;;;;;;3.00;1.50;;;;;;;;;;104797;1257;62258;-47
2023/03/19 13:07:23;;;;;;;4.10;1.40;;;;;;;;;;105521;1256;60406;-48
2023/03/19 13:09:59;;;;;;;2.40;1.60;;;;;;;;;;104981;1259;60491;-48
2023/03/19 13:12:28;;;;;;;3.10;1.70;;;;;;;;;;105451;1257;60559;-50
2023/03/19 13:15:00;;;;;;;2.20;1.70;;;;;;;;;;105146;1254;60505;-49
2023/03/19 13:17:35;;;;;;;6.10;1.70;;;;;;;;;;105938;1256;61237;-45
2023/03/19 13:20:19;;;;;;;2.40;1.70;;;;;;;;;;105310;1259;60410;-48
2023/03/19 13:22:55;;;;;;;3.00;1.40;;;;;;;;;;105369;1254;60481;-49
2023/03/19 13:25:24;;;;;;;1.40;1.10;;;;;;;;;;106063;1255;60904;-47
2023/03/19 13:27:53;;;;;;;2.50;1.30;;;;;;;;;;105479;1259;60422;-49
2023/03/19 13:30:21;;;;;;;1.60;1.30;;;;;;;;;;105695;1256;62372;-49
2023/03/19 13:32:53;;;;;;;3.90;1.50;;;;;;;;;;105367;1256;60501;-49
2023/03/19 13:35:34;;;;;;;3.50;1.70;;;;;;;;;;106241;1257;60765;-47
2023/03/19 13:38:07;;;;;;;5.60;1.70;;;;;;;;;;106191;1254;60721;-50
2023/03/19 13:40:36;;;;;;;4.70;2.10;;;;;;;;;;105263;1254;60498;-47
2023/03/19 13:43:03;;;;;;;2.70;2.00;;;;;;;;;;105160;1258;61160;-48
2023/03/19 13:45:40;;;;;;;2.80;2.00;;;;;;;;;;105263;1259;60812;-46
2023/03/19 13:48:38;;;;;;;2.20;1.40;;;;;;;;;;105992;1255;60764;-49
2023/03/19 13:51:22;;;;;;;1.50;1.20;;;;;;;;;;105180;1256;60327;-47
2023/03/19 13:53:54;;;;;;;2.90;1.20;;;;;;;;;;106218;1256;60303;-48
2023/03/19 13:56:23;;;;;;;2.50;1.50;;;;;;;;;;105368;1257;62387;-48
2023/03/19 13:59:16;;;;;;;3.40;2.10;;;;;;;;;;107803;1256;59362;-49
2023/03/19 14:01:44;;;;;;;15.40;4.30;;;;;;;;;;104978;1256;60796;-47
2023/03/19 14:04:19;;;;;;;15.40;2.40;;;;;;;;;;105094;1260;60534;-46
2023/03/19 14:06:48;;;;;;;1.50;1.40;;;;;;;;;;105130;1257;60614;-49
2023/03/19 14:09:38;;;;;;;8.40;1.70;;;;;;;;;;105379;1254;61034;-48
2023/03/19 14:12:21;;;;;;;3.90;2.00;;;;;;;;;;105280;1257;60552;-51
2023/03/19 14:14:50;;;;;;;4.70;2.00;;;;;;;;;;106884;1255;60558;-48
2023/03/19 14:17:25;;;;;;;1.80;1.70;;;;;;;;;;105224;1257;60683;-47
2023/03/19 14:19:54;;;;;;;3.10;2.10;;;;;;;;;;105979;1254;60270;-48
2023/03/19 14:22:39;;;;;;;1.60;1.40;;;;;;;;;;104791;1255;60997;-48
2023/03/19 14:25:17;;;;;;;2.40;1.60;;;;;;;;;;104778;1257;60411;-49
2023/03/19 14:27:49;;;;;;;4.30;1.50;;;;;;;;;;104805;1254;60807;-49
2023/03/19 14:30:19;;;;;;;4.00;1.60;;;;;;;;;;105321;1258;60531;-48
2023/03/19 14:32:47;;;;;;;2.80;2.10;;;;;;;;;;105340;1254;60437;-48
2023/03/19 14:35:15;;;;;;;4.20;2.30;;;;;;;;;;109026;1254;62207;-50
2023/03/19 14:37:45;;;;;;;2.20;1.60;;;;;;;;;;109189;1254;58452;-50
2023/03/19 14:40:25;;;;;;;1.70;1.40;;;;;;;;;;107373;1255;60476;-50
2023/03/19 14:43:06;;;;;;;3.10;1.30;;;;;;;;;;105745;1254;60542;-48
2023/03/19 14:45:45;;;;;;;3.40;1.40;;;;;;;;;;105218;1254;60431;-48
2023/03/19 14:48:15;;;;;;;4.80;2.90;;;;;;;;;;108976;1254;60870;-50